sensor_id;sensor_type;location;lat;lon;timestamp;temperature;humidity
67279;DHT22;54193;53.746;10.058;2023-02-13T00:01:48;6.30;94.76
67279;DHT22;54193;53.746;10.058;2023-02-13T00:04:33;6.31;94.72
67279;DHT22;54193;53.746;10.058;2023-02-13T00:07:20;6.25;94.70
67279;DHT22;54193;53.746;10.058;2023-02-13T00:10:06;6.25;94.77
67279;DHT22;54193;53.746;10.058;2023-02-13T00:12:52;6.30;94.77
67279;DHT22;54193;53.746;10.058;2023-02-13T00:15:38;6.25;94.76
67279;DHT22;54193;53.746;10.058;2023-02-13T00:18:25;6.24;94.71
67279;DHT22;54193;53.746;10.058;2023-02-13T00:21:12;6.30;94.79
67279;DHT22;54193;53.746;10.058;2023-02-13T00:23:58;6.30;94.75
67279;DHT22;54193;53.746;10.058;2023-02-13T00:26:43;6.25;94.72
67279;DHT22;54193;53.746;10.058;2023-02-13T00:29:29;6.27;94.76
67279;DHT22;54193;53.746;10.058;2023-02-13T00:32:14;6.31;94.76
67279;DHT22;54193;53.746;10.058;2023-02-13T00:35:00;6.24;94.65
67279;DHT22;54193;53.746;10.058;2023-02-13T00:37:46;6.17;94.80
67279;DHT22;54193;53.746;10.058;2023-02-13T00:40:31;6.27;94.79
67279;DHT22;54193;53.746;10.058;2023-02-13T00:43:17;6.24;94.76
67279;DHT22;54193;53.746;10.058;2023-02-13T00:46:03;6.24;94.76
67279;DHT22;54193;53.746;10.058;2023-02-13T00:48:49;6.25;94.79
67279;DHT22;54193;53.746;10.058;2023-02-13T00:51:34;6.25;94.78
67279;DHT22;54193;53.746;10.058;2023-02-13T00:54:20;6.27;94.77
67279;DHT22;54193;53.746;10.058;2023-02-13T00:57:06;6.24;94.82
67279;DHT22;54193;53.746;10.058;2023-02-13T00:59:51;6.27;94.81
67279;DHT22;54193;53.746;10.058;2023-02-13T01:02:37;6.27;94.81
67279;DHT22;54193;53.746;10.058;2023-02-13T01:05:22;6.20;94.81
67279;DHT22;54193;53.746;10.058;2023-02-13T01:08:09;6.25;94.80
67279;DHT22;54193;53.746;10.058;2023-02-13T01:10:56;6.24;94.86
67279;DHT22;54193;53.746;10.058;2023-02-13T01:13:41;6.27;94.80
67279;DHT22;54193;53.746;10.058;2023-02-13T01:16:27;6.31;94.78
67279;DHT22;54193;53.746;10.058;2023-02-13T01:19:13;6.18;94.69
67279;DHT22;54193;53.746;10.058;2023-02-13T01:21:58;6.21;94.77
67279;DHT22;54193;53.746;10.058;2023-02-13T01:24:44;6.17;94.74
67279;DHT22;54193;53.746;10.058;2023-02-13T01:27:29;6.18;94.80
67279;DHT22;54193;53.746;10.058;2023-02-13T01:30:17;6.20;94.82
67279;DHT22;54193;53.746;10.058;2023-02-13T01:33:03;6.20;94.78
67279;DHT22;54193;53.746;10.058;2023-02-13T01:35:49;6.24;94.78
67279;DHT22;54193;53.746;10.058;2023-02-13T01:38:34;6.23;94.75
67279;DHT22;54193;53.746;10.058;2023-02-13T01:41:21;6.24;94.77
67279;DHT22;54193;53.746;10.058;2023-02-13T01:44:44;6.18;94.77
67279;DHT22;54193;53.746;10.058;2023-02-13T01:47:37;6.20;94.74
67279;DHT22;54193;53.746;10.058;2023-02-13T01:50:33;6.14;94.80
67279;DHT22;54193;53.746;10.058;2023-02-13T01:53:27;6.21;94.86
67279;DHT22;54193;53.746;10.058;2023-02-13T01:56:20;6.20;94.81
67279;DHT22;54193;53.746;10.058;2023-02-13T01:59:10;6.23;94.72
67279;DHT22;54193;53.746;10.058;2023-02-13T02:01:57;6.16;94.76
67279;DHT22;54193;53.746;10.058;2023-02-13T02:04:45;6.09;94.79
67279;DHT22;54193;53.746;10.058;2023-02-13T02:07:32;6.06;94.77
67279;DHT22;54193;53.746;10.058;2023-02-13T02:10:19;6.07;94.94
67279;DHT22;54193;53.746;10.058;2023-02-13T02:13:14;6.13;94.87
67279;DHT22;54193;53.746;10.058;2023-02-13T02:16:03;6.17;94.83
67279;DHT22;54193;53.746;10.058;2023-02-13T02:18:48;6.10;94.79
67279;DHT22;54193;53.746;10.058;2023-02-13T02:21:51;6.09;94.81
67279;DHT22;54193;53.746;10.058;2023-02-13T02:27:58;6.21;94.83
67279;DHT22;54193;53.746;10.058;2023-02-13T02:40:24;6.10;94.72
67279;DHT22;54193;53.746;10.058;2023-02-13T02:49:07;6.06;94.47
67279;DHT22;54193;53.746;10.058;2023-02-13T02:52:17;6.13;94.49
67279;DHT22;54193;53.746;10.058;2023-02-13T02:55:13;6.10;94.35
67279;DHT22;54193;53.746;10.058;2023-02-13T03:01:13;6.03;94.18
67279;DHT22;54193;53.746;10.058;2023-02-13T03:04:25;5.99;93.88
67279;DHT22;54193;53.746;10.058;2023-02-13T03:07:31;6.03;93.85
67279;DHT22;54193;53.746;10.058;2023-02-13T03:10:27;5.93;93.27
67279;DHT22;54193;53.746;10.058;2023-02-13T03:13:40;5.97;93.58
67279;DHT22;54193;53.746;10.058;2023-02-13T03:16:26;5.92;93.56
67279;DHT22;54193;53.746;10.058;2023-02-13T03:19:56;5.94;93.49
67279;DHT22;54193;53.746;10.058;2023-02-13T03:23:18;5.97;93.49
67279;DHT22;54193;53.746;10.058;2023-02-13T03:26:31;5.96;93.29
67279;DHT22;54193;53.746;10.058;2023-02-13T03:36:11;5.92;93.27
67279;DHT22;54193;53.746;10.058;2023-02-13T03:42:32;5.92;93.04
67279;DHT22;54193;53.746;10.058;2023-02-13T03:45:23;5.94;93.15
67279;DHT22;54193;53.746;10.058;2023-02-13T03:48:32;5.94;93.25
67279;DHT22;54193;53.746;10.058;2023-02-13T03:51:53;5.89;93.12
67279;DHT22;54193;53.746;10.058;2023-02-13T03:54:44;5.92;93.06
67279;DHT22;54193;53.746;10.058;2023-02-13T03:57:53;5.93;92.46
67279;DHT22;54193;53.746;10.058;2023-02-13T04:01:01;5.87;92.29
67279;DHT22;54193;53.746;10.058;2023-02-13T04:03:51;5.85;92.02
67279;DHT22;54193;53.746;10.058;2023-02-13T04:06:53;5.90;92.23
67279;DHT22;54193;53.746;10.058;2023-02-13T04:09:41;5.90;92.07
67279;DHT22;54193;53.746;10.058;2023-02-13T04:15:37;5.90;91.70
67279;DHT22;54193;53.746;10.058;2023-02-13T04:18:28;5.83;91.97
67279;DHT22;54193;53.746;10.058;2023-02-13T04:21:15;5.79;90.54
67279;DHT22;54193;53.746;10.058;2023-02-13T04:24:01;5.80;91.22
67279;DHT22;54193;53.746;10.058;2023-02-13T04:26:46;5.82;90.79
67279;DHT22;54193;53.746;10.058;2023-02-13T04:29:32;5.80;90.01
67279;DHT22;54193;53.746;10.058;2023-02-13T04:32:18;5.83;90.18
67279;DHT22;54193;53.746;10.058;2023-02-13T04:35:04;5.86;90.01
67279;DHT22;54193;53.746;10.058;2023-02-13T04:37:49;5.92;89.03
67279;DHT22;54193;53.746;10.058;2023-02-13T04:40:35;5.94;88.25
67279;DHT22;54193;53.746;10.058;2023-02-13T04:43:21;5.99;88.13
67279;DHT22;54193;53.746;10.058;2023-02-13T04:46:07;6.03;87.18
67279;DHT22;54193;53.746;10.058;2023-02-13T04:48:52;6.03;86.98
67279;DHT22;54193;53.746;10.058;2023-02-13T04:51:38;6.00;86.94
67279;DHT22;54193;53.746;10.058;2023-02-13T04:54:24;6.02;87.00
67279;DHT22;54193;53.746;10.058;2023-02-13T04:57:09;6.02;86.31
67279;DHT22;54193;53.746;10.058;2023-02-13T04:59:55;6.03;86.70
67279;DHT22;54193;53.746;10.058;2023-02-13T05:02:40;6.00;86.63
67279;DHT22;54193;53.746;10.058;2023-02-13T05:05:26;5.96;87.08
67279;DHT22;54193;53.746;10.058;2023-02-13T05:08:12;5.93;87.03
67279;DHT22;54193;53.746;10.058;2023-02-13T05:10:57;5.97;87.30
67279;DHT22;54193;53.746;10.058;2023-02-13T05:13:43;5.93;88.13
67279;DHT22;54193;53.746;10.058;2023-02-13T05:16:29;5.94;88.02
67279;DHT22;54193;53.746;10.058;2023-02-13T05:19:15;5.86;88.18
67279;DHT22;54193;53.746;10.058;2023-02-13T05:22:01;5.79;88.38
67279;DHT22;54193;53.746;10.058;2023-02-13T05:25:05;5.77;87.70
67279;DHT22;54193;53.746;10.058;2023-02-13T05:27:51;5.76;87.20
67279;DHT22;54193;53.746;10.058;2023-02-13T05:30:36;5.79;87.36
67279;DHT22;54193;53.746;10.058;2023-02-13T05:33:23;5.85;87.97
67279;DHT22;54193;53.746;10.058;2023-02-13T05:36:09;5.82;88.11
67279;DHT22;54193;53.746;10.058;2023-02-13T05:38:55;5.79;88.59
67279;DHT22;54193;53.746;10.058;2023-02-13T05:41:44;5.76;88.71
67279;DHT22;54193;53.746;10.058;2023-02-13T05:44:30;5.79;88.86
67279;DHT22;54193;53.746;10.058;2023-02-13T05:47:16;5.79;89.18
67279;DHT22;54193;53.746;10.058;2023-02-13T05:50:02;5.82;89.24
67279;DHT22;54193;53.746;10.058;2023-02-13T05:52:48;5.72;89.07
67279;DHT22;54193;53.746;10.058;2023-02-13T05:55:33;5.77;89.50
67279;DHT22;54193;53.746;10.058;2023-02-13T05:58:19;5.75;89.62
67279;DHT22;54193;53.746;10.058;2023-02-13T06:01:05;5.62;89.70
67279;DHT22;54193;53.746;10.058;2023-02-13T06:03:51;5.63;90.01
67279;DHT22;54193;53.746;10.058;2023-02-13T06:06:36;5.66;90.08
67279;DHT22;54193;53.746;10.058;2023-02-13T06:09:22;5.65;89.79
67279;DHT22;54193;53.746;10.058;2023-02-13T06:12:07;5.65;89.98
67279;DHT22;54193;53.746;10.058;2023-02-13T06:14:53;5.70;90.06
67279;DHT22;54193;53.746;10.058;2023-02-13T06:17:39;5.69;90.03
67279;DHT22;54193;53.746;10.058;2023-02-13T06:20:24;5.70;89.92
67279;DHT22;54193;53.746;10.058;2023-02-13T06:23:10;5.70;89.81
67279;DHT22;54193;53.746;10.058;2023-02-13T06:25:56;5.65;89.86
67279;DHT22;54193;53.746;10.058;2023-02-13T06:28:41;5.67;90.00
67279;DHT22;54193;53.746;10.058;2023-02-13T06:31:27;5.67;89.88
67279;DHT22;54193;53.746;10.058;2023-02-13T06:34:13;5.58;89.02
67279;DHT22;54193;53.746;10.058;2023-02-13T06:36:58;5.49;88.37
67279;DHT22;54193;53.746;10.058;2023-02-13T06:39:44;5.45;89.34
67279;DHT22;54193;53.746;10.058;2023-02-13T06:42:30;5.44;89.34
67279;DHT22;54193;53.746;10.058;2023-02-13T06:45:15;5.60;89.74
67279;DHT22;54193;53.746;10.058;2023-02-13T06:48:01;5.59;88.93
67279;DHT22;54193;53.746;10.058;2023-02-13T06:50:47;5.54;88.58
67279;DHT22;54193;53.746;10.058;2023-02-13T06:53:32;5.49;88.63
67279;DHT22;54193;53.746;10.058;2023-02-13T06:56:18;5.54;88.23
67279;DHT22;54193;53.746;10.058;2023-02-13T06:59:03;5.66;89.00
67279;DHT22;54193;53.746;10.058;2023-02-13T07:01:49;5.65;88.23
67279;DHT22;54193;53.746;10.058;2023-02-13T07:04:35;5.73;89.19
67279;DHT22;54193;53.746;10.058;2023-02-13T07:07:20;5.79;89.52
67279;DHT22;54193;53.746;10.058;2023-02-13T07:10:08;5.79;89.56
67279;DHT22;54193;53.746;10.058;2023-02-13T07:12:54;5.76;89.36
67279;DHT22;54193;53.746;10.058;2023-02-13T07:15:40;5.75;89.58
67279;DHT22;54193;53.746;10.058;2023-02-13T07:18:26;5.72;89.56
67279;DHT22;54193;53.746;10.058;2023-02-13T07:21:12;5.73;89.36
67279;DHT22;54193;53.746;10.058;2023-02-13T07:23:57;5.72;89.52
67279;DHT22;54193;53.746;10.058;2023-02-13T07:26:43;5.79;89.40
67279;DHT22;54193;53.746;10.058;2023-02-13T07:29:28;5.79;89.41
67279;DHT22;54193;53.746;10.058;2023-02-13T07:32:14;5.72;89.30
67279;DHT22;54193;53.746;10.058;2023-02-13T07:35:00;5.76;89.55
67279;DHT22;54193;53.746;10.058;2023-02-13T07:37:45;5.79;89.55
67279;DHT22;54193;53.746;10.058;2023-02-13T07:40:31;5.82;89.53
67279;DHT22;54193;53.746;10.058;2023-02-13T07:43:17;5.85;89.39
67279;DHT22;54193;53.746;10.058;2023-02-13T07:46:02;5.87;89.25
67279;DHT22;54193;53.746;10.058;2023-02-13T07:48:51;5.89;89.28
67279;DHT22;54193;53.746;10.058;2023-02-13T07:51:36;5.82;89.12
67279;DHT22;54193;53.746;10.058;2023-02-13T07:54:22;5.86;89.39
67279;DHT22;54193;53.746;10.058;2023-02-13T07:57:07;5.93;89.23
67279;DHT22;54193;53.746;10.058;2023-02-13T07:59:53;5.90;88.94
67279;DHT22;54193;53.746;10.058;2023-02-13T08:02:39;5.86;89.05
67279;DHT22;54193;53.746;10.058;2023-02-13T08:05:24;5.82;89.17
67279;DHT22;54193;53.746;10.058;2023-02-13T08:08:10;5.75;89.03
67279;DHT22;54193;53.746;10.058;2023-02-13T08:10:56;5.87;89.31
67279;DHT22;54193;53.746;10.058;2023-02-13T08:14:01;5.96;89.11
67279;DHT22;54193;53.746;10.058;2023-02-13T08:16:46;5.99;89.09
67279;DHT22;54193;53.746;10.058;2023-02-13T08:19:32;6.09;88.77
67279;DHT22;54193;53.746;10.058;2023-02-13T08:22:18;6.16;88.76
67279;DHT22;54193;53.746;10.058;2023-02-13T08:25:04;6.13;88.52
67279;DHT22;54193;53.746;10.058;2023-02-13T08:27:50;6.11;88.62
67279;DHT22;54193;53.746;10.058;2023-02-13T08:30:36;6.10;88.86
67279;DHT22;54193;53.746;10.058;2023-02-13T08:33:21;6.10;89.14
67279;DHT22;54193;53.746;10.058;2023-02-13T08:36:07;6.17;89.07
67279;DHT22;54193;53.746;10.058;2023-02-13T08:38:53;6.20;88.85
67279;DHT22;54193;53.746;10.058;2023-02-13T08:41:39;6.21;88.90
67279;DHT22;54193;53.746;10.058;2023-02-13T08:44:24;6.11;89.07
67279;DHT22;54193;53.746;10.058;2023-02-13T08:47:10;6.09;89.63
67279;DHT22;54193;53.746;10.058;2023-02-13T08:49:56;6.18;89.56
67279;DHT22;54193;53.746;10.058;2023-02-13T08:52:41;6.27;89.42
67279;DHT22;54193;53.746;10.058;2023-02-13T08:55:27;6.28;89.27
67279;DHT22;54193;53.746;10.058;2023-02-13T08:58:14;6.40;89.15
67279;DHT22;54193;53.746;10.058;2023-02-13T09:01:03;6.40;89.08
67279;DHT22;54193;53.746;10.058;2023-02-13T09:03:49;6.48;88.96
67279;DHT22;54193;53.746;10.058;2023-02-13T09:06:35;6.42;89.01
67279;DHT22;54193;53.746;10.058;2023-02-13T09:09:21;6.49;88.96
67279;DHT22;54193;53.746;10.058;2023-02-13T09:12:07;6.45;89.22
67279;DHT22;54193;53.746;10.058;2023-02-13T09:14:53;6.48;88.88
67279;DHT22;54193;53.746;10.058;2023-02-13T09:17:39;6.52;89.06
67279;DHT22;54193;53.746;10.058;2023-02-13T09:20:25;6.59;89.02
67279;DHT22;54193;53.746;10.058;2023-02-13T09:23:10;6.59;89.08
67279;DHT22;54193;53.746;10.058;2023-02-13T09:26:00;6.52;89.44
67279;DHT22;54193;53.746;10.058;2023-02-13T09:28:46;6.48;88.90
67279;DHT22;54193;53.746;10.058;2023-02-13T09:31:32;6.49;89.11
67279;DHT22;54193;53.746;10.058;2023-02-13T09:34:18;6.61;88.89
67279;DHT22;54193;53.746;10.058;2023-02-13T09:37:03;6.64;88.75
67279;DHT22;54193;53.746;10.058;2023-02-13T09:39:49;6.65;88.71
67279;DHT22;54193;53.746;10.058;2023-02-13T09:42:34;6.61;88.55
67279;DHT22;54193;53.746;10.058;2023-02-13T09:45:23;6.76;88.37
67279;DHT22;54193;53.746;10.058;2023-02-13T09:48:17;6.83;88.04
67279;DHT22;54193;53.746;10.058;2023-02-13T09:51:04;6.85;88.08
67279;DHT22;54193;53.746;10.058;2023-02-13T09:53:53;6.85;87.79
67279;DHT22;54193;53.746;10.058;2023-02-13T09:56:47;6.90;87.65
67279;DHT22;54193;53.746;10.058;2023-02-13T09:59:57;6.90;87.21
67279;DHT22;54193;53.746;10.058;2023-02-13T10:02:55;6.90;87.66
67279;DHT22;54193;53.746;10.058;2023-02-13T10:06:06;6.92;87.45
67279;DHT22;54193;53.746;10.058;2023-02-13T10:09:08;7.06;87.40
67279;DHT22;54193;53.746;10.058;2023-02-13T10:18:33;7.08;86.60
67279;DHT22;54193;53.746;10.058;2023-02-13T10:21:25;7.14;86.29
67279;DHT22;54193;53.746;10.058;2023-02-13T10:24:14;7.20;86.04
67279;DHT22;54193;53.746;10.058;2023-02-13T10:27:11;7.26;85.87
67279;DHT22;54193;53.746;10.058;2023-02-13T10:30:05;7.16;85.03
67279;DHT22;54193;53.746;10.058;2023-02-13T10:33:14;7.16;85.50
67279;DHT22;54193;53.746;10.058;2023-02-13T10:36:17;7.21;84.99
67279;DHT22;54193;53.746;10.058;2023-02-13T10:42:05;7.26;84.75
67279;DHT22;54193;53.746;10.058;2023-02-13T10:45:02;7.34;85.11
67279;DHT22;54193;53.746;10.058;2023-02-13T10:51:26;7.30;84.70
67279;DHT22;54193;53.746;10.058;2023-02-13T11:04:05;7.43;83.75
67279;DHT22;54193;53.746;10.058;2023-02-13T11:07:03;7.38;83.26
67279;DHT22;54193;53.746;10.058;2023-02-13T11:09:49;7.44;83.01
67279;DHT22;54193;53.746;10.058;2023-02-13T11:12:37;7.61;83.95
67279;DHT22;54193;53.746;10.058;2023-02-13T11:15:28;7.50;83.45
67279;DHT22;54193;53.746;10.058;2023-02-13T11:18:21;7.66;83.91
67279;DHT22;54193;53.746;10.058;2023-02-13T11:21:16;7.66;83.28
67279;DHT22;54193;53.746;10.058;2023-02-13T11:24:04;7.71;83.21
67279;DHT22;54193;53.746;10.058;2023-02-13T11:26:52;7.72;83.00
67279;DHT22;54193;53.746;10.058;2023-02-13T11:29:56;7.68;83.26
67279;DHT22;54193;53.746;10.058;2023-02-13T11:32:56;7.62;82.99
67279;DHT22;54193;53.746;10.058;2023-02-13T11:35:44;7.64;82.68
67279;DHT22;54193;53.746;10.058;2023-02-13T11:38:30;7.65;82.51
67279;DHT22;54193;53.746;10.058;2023-02-13T11:41:22;7.71;82.58
67279;DHT22;54193;53.746;10.058;2023-02-13T11:44:37;7.66;82.78
67279;DHT22;54193;53.746;10.058;2023-02-13T11:47:31;7.61;82.61
67279;DHT22;54193;53.746;10.058;2023-02-13T11:50:32;7.71;82.90
67279;DHT22;54193;53.746;10.058;2023-02-13T11:53:22;7.71;82.75
67279;DHT22;54193;53.746;10.058;2023-02-13T11:56:12;7.59;83.92
67279;DHT22;54193;53.746;10.058;2023-02-13T11:59:03;7.44;82.70
67279;DHT22;54193;53.746;10.058;2023-02-13T12:02:13;7.61;83.60
67279;DHT22;54193;53.746;10.058;2023-02-13T12:05:21;7.52;83.95
67279;DHT22;54193;53.746;10.058;2023-02-13T12:08:07;7.71;84.00
67279;DHT22;54193;53.746;10.058;2023-02-13T12:10:54;7.69;83.48
67279;DHT22;54193;53.746;10.058;2023-02-13T12:13:41;7.59;83.89
67279;DHT22;54193;53.746;10.058;2023-02-13T12:19:23;7.82;84.20
67279;DHT22;54193;53.746;10.058;2023-02-13T12:25:40;7.72;84.07
67279;DHT22;54193;53.746;10.058;2023-02-13T12:31:47;7.56;83.85
67279;DHT22;54193;53.746;10.058;2023-02-13T12:41:17;7.59;83.80
67279;DHT22;54193;53.746;10.058;2023-02-13T12:44:32;7.69;83.98
67279;DHT22;54193;53.746;10.058;2023-02-13T12:47:30;7.71;83.96
67279;DHT22;54193;53.746;10.058;2023-02-13T12:56:46;7.72;83.26
67279;DHT22;54193;53.746;10.058;2023-02-13T12:59:56;7.68;83.34
67279;DHT22;54193;53.746;10.058;2023-02-13T13:03:02;7.62;83.60
67279;DHT22;54193;53.746;10.058;2023-02-13T13:06:17;7.51;83.38
67279;DHT22;54193;53.746;10.058;2023-02-13T13:09:21;7.59;83.40
67279;DHT22;54193;53.746;10.058;2023-02-13T13:12:31;7.52;83.47
67279;DHT22;54193;53.746;10.058;2023-02-13T13:15:43;7.56;83.55
67279;DHT22;54193;53.746;10.058;2023-02-13T13:18:54;7.62;83.62
67279;DHT22;54193;53.746;10.058;2023-02-13T13:22:04;7.52;83.63
67279;DHT22;54193;53.746;10.058;2023-02-13T13:28:01;7.44;84.14
67279;DHT22;54193;53.746;10.058;2023-02-13T13:30:48;7.47;83.69
67279;DHT22;54193;53.746;10.058;2023-02-13T13:33:38;7.45;82.59
67279;DHT22;54193;53.746;10.058;2023-02-13T13:36:45;7.45;82.51
67279;DHT22;54193;53.746;10.058;2023-02-13T13:42:34;7.51;83.36
67279;DHT22;54193;53.746;10.058;2023-02-13T13:51:22;7.30;82.66
67279;DHT22;54193;53.746;10.058;2023-02-13T14:02:45;7.04;82.77
67279;DHT22;54193;53.746;10.058;2023-02-13T14:05:32;7.01;82.85
67279;DHT22;54193;53.746;10.058;2023-02-13T14:11:37;6.93;83.78
67279;DHT22;54193;53.746;10.058;2023-02-13T14:17:13;6.90;83.10
67279;DHT22;54193;53.746;10.058;2023-02-13T14:20:00;6.86;82.59
67279;DHT22;54193;53.746;10.058;2023-02-13T14:22:45;6.83;82.77
67279;DHT22;54193;53.746;10.058;2023-02-13T14:25:31;6.80;82.76
67279;DHT22;54193;53.746;10.058;2023-02-13T14:28:25;6.79;83.02
67279;DHT22;54193;53.746;10.058;2023-02-13T14:34:18;6.78;83.07
67279;DHT22;54193;53.746;10.058;2023-02-13T14:42:59;6.62;82.75
67279;DHT22;54193;53.746;10.058;2023-02-13T14:45:57;6.65;82.92
67279;DHT22;54193;53.746;10.058;2023-02-13T14:49:16;6.56;82.24
67279;DHT22;54193;53.746;10.058;2023-02-13T14:52:06;6.62;82.51
67279;DHT22;54193;53.746;10.058;2023-02-13T14:55:03;6.56;82.54
67279;DHT22;54193;53.746;10.058;2023-02-13T14:57:59;6.61;83.13
67279;DHT22;54193;53.746;10.058;2023-02-13T15:04:04;6.67;82.69
67279;DHT22;54193;53.746;10.058;2023-02-13T15:06:56;6.61;82.30
67279;DHT22;54193;53.746;10.058;2023-02-13T15:09:47;6.61;81.92
67279;DHT22;54193;53.746;10.058;2023-02-13T15:12:36;6.58;82.54
67279;DHT22;54193;53.746;10.058;2023-02-13T15:15:25;6.40;81.32
67279;DHT22;54193;53.746;10.058;2023-02-13T15:18:18;6.40;82.24
67279;DHT22;54193;53.746;10.058;2023-02-13T15:21:04;6.40;82.04
67279;DHT22;54193;53.746;10.058;2023-02-13T15:23:52;6.38;82.08
67279;DHT22;54193;53.746;10.058;2023-02-13T15:26:40;6.34;81.77
67279;DHT22;54193;53.746;10.058;2023-02-13T15:29:26;6.38;81.97
67279;DHT22;54193;53.746;10.058;2023-02-13T15:32:19;6.30;81.22
67279;DHT22;54193;53.746;10.058;2023-02-13T15:35:29;6.30;82.09
67279;DHT22;54193;53.746;10.058;2023-02-13T15:38:35;6.24;82.00
67279;DHT22;54193;53.746;10.058;2023-02-13T15:41:23;6.30;82.64
67279;DHT22;54193;53.746;10.058;2023-02-13T15:44:16;6.24;82.24
67279;DHT22;54193;53.746;10.058;2023-02-13T15:47:05;6.31;83.02
67279;DHT22;54193;53.746;10.058;2023-02-13T15:49:53;6.28;82.04
67279;DHT22;54193;53.746;10.058;2023-02-13T15:52:38;6.25;81.90
67279;DHT22;54193;53.746;10.058;2023-02-13T15:55:27;6.25;82.67
67279;DHT22;54193;53.746;10.058;2023-02-13T15:58:13;6.23;82.42
67279;DHT22;54193;53.746;10.058;2023-02-13T16:01:03;6.25;82.70
67279;DHT22;54193;53.746;10.058;2023-02-13T16:03:57;6.23;82.85
67279;DHT22;54193;53.746;10.058;2023-02-13T16:06:45;6.18;83.02
67279;DHT22;54193;53.746;10.058;2023-02-13T16:09:32;6.16;82.53
67279;DHT22;54193;53.746;10.058;2023-02-13T16:12:22;6.14;82.55
67279;DHT22;54193;53.746;10.058;2023-02-13T16:15:14;6.11;82.48
67279;DHT22;54193;53.746;10.058;2023-02-13T16:18:01;6.09;82.59
67279;DHT22;54193;53.746;10.058;2023-02-13T16:20:52;6.07;83.01
67279;DHT22;54193;53.746;10.058;2023-02-13T16:23:39;6.04;83.16
67279;DHT22;54193;53.746;10.058;2023-02-13T16:26:25;5.99;82.99
67279;DHT22;54193;53.746;10.058;2023-02-13T16:29:20;6.00;83.49
67279;DHT22;54193;53.746;10.058;2023-02-13T16:32:12;5.89;82.42
67279;DHT22;54193;53.746;10.058;2023-02-13T16:35:36;5.79;82.99
67279;DHT22;54193;53.746;10.058;2023-02-13T16:38:37;5.87;83.39
67279;DHT22;54193;53.746;10.058;2023-02-13T16:44:29;5.90;83.61
67279;DHT22;54193;53.746;10.058;2023-02-13T16:47:22;5.80;82.87
67279;DHT22;54193;53.746;10.058;2023-02-13T16:50:15;5.79;83.09
67279;DHT22;54193;53.746;10.058;2023-02-13T16:53:02;5.86;83.61
67279;DHT22;54193;53.746;10.058;2023-02-13T16:55:56;5.80;83.39
67279;DHT22;54193;53.746;10.058;2023-02-13T16:58:42;5.69;83.53
67279;DHT22;54193;53.746;10.058;2023-02-13T17:01:28;5.73;83.79
67279;DHT22;54193;53.746;10.058;2023-02-13T17:04:24;5.76;83.58
67279;DHT22;54193;53.746;10.058;2023-02-13T17:07:21;5.80;84.35
67279;DHT22;54193;53.746;10.058;2023-02-13T17:13:15;5.77;83.22
67279;DHT22;54193;53.746;10.058;2023-02-13T17:16:04;5.65;83.76
67279;DHT22;54193;53.746;10.058;2023-02-13T17:18:50;5.65;82.41
67279;DHT22;54193;53.746;10.058;2023-02-13T17:21:36;5.77;83.60
67279;DHT22;54193;53.746;10.058;2023-02-13T17:24:22;5.69;83.75
67279;DHT22;54193;53.746;10.058;2023-02-13T17:27:08;5.67;83.78
67279;DHT22;54193;53.746;10.058;2023-02-13T17:29:55;5.75;84.54
67279;DHT22;54193;53.746;10.058;2023-02-13T17:32:43;5.65;84.31
67279;DHT22;54193;53.746;10.058;2023-02-13T17:35:29;5.63;84.15
67279;DHT22;54193;53.746;10.058;2023-02-13T17:38:15;5.66;83.89
67279;DHT22;54193;53.746;10.058;2023-02-13T17:41:01;5.76;84.55
67279;DHT22;54193;53.746;10.058;2023-02-13T17:43:46;5.76;84.62
67279;DHT22;54193;53.746;10.058;2023-02-13T17:46:32;5.77;84.88
67279;DHT22;54193;53.746;10.058;2023-02-13T17:49:17;5.79;84.64
67279;DHT22;54193;53.746;10.058;2023-02-13T17:52:03;5.72;84.36
67279;DHT22;54193;53.746;10.058;2023-02-13T17:54:49;5.69;83.45
67279;DHT22;54193;53.746;10.058;2023-02-13T17:57:35;5.69;84.13
67279;DHT22;54193;53.746;10.058;2023-02-13T18:00:21;5.65;83.65
67279;DHT22;54193;53.746;10.058;2023-02-13T18:03:07;5.66;83.92
67279;DHT22;54193;53.746;10.058;2023-02-13T18:05:52;5.69;84.53
67279;DHT22;54193;53.746;10.058;2023-02-13T18:08:38;5.70;84.24
67279;DHT22;54193;53.746;10.058;2023-02-13T18:11:24;5.66;84.40
67279;DHT22;54193;53.746;10.058;2023-02-13T18:14:09;5.63;84.32
67279;DHT22;54193;53.746;10.058;2023-02-13T18:16:55;5.62;84.47
67279;DHT22;54193;53.746;10.058;2023-02-13T18:19:41;5.62;84.04
67279;DHT22;54193;53.746;10.058;2023-02-13T18:22:27;5.60;84.03
67279;DHT22;54193;53.746;10.058;2023-02-13T18:25:13;5.60;84.16
67279;DHT22;54193;53.746;10.058;2023-02-13T18:27:58;5.62;84.43
67279;DHT22;54193;53.746;10.058;2023-02-13T18:30:44;5.56;84.83
67279;DHT22;54193;53.746;10.058;2023-02-13T18:33:30;5.55;84.84
67279;DHT22;54193;53.746;10.058;2023-02-13T18:36:15;5.60;84.89
67279;DHT22;54193;53.746;10.058;2023-02-13T18:39:01;5.58;84.71
67279;DHT22;54193;53.746;10.058;2023-02-13T18:41:47;5.63;84.80
67279;DHT22;54193;53.746;10.058;2023-02-13T18:44:32;5.60;84.77
67279;DHT22;54193;53.746;10.058;2023-02-13T18:47:18;5.52;84.32
67279;DHT22;54193;53.746;10.058;2023-02-13T18:50:04;5.47;85.11
67279;DHT22;54193;53.746;10.058;2023-02-13T18:52:50;5.55;84.12
67279;DHT22;54193;53.746;10.058;2023-02-13T18:55:36;5.58;84.18
67279;DHT22;54193;53.746;10.058;2023-02-13T18:58:21;5.48;84.67
67279;DHT22;54193;53.746;10.058;2023-02-13T19:01:10;5.52;84.70
67279;DHT22;54193;53.746;10.058;2023-02-13T19:03:59;5.54;84.94
67279;DHT22;54193;53.746;10.058;2023-02-13T19:06:45;5.58;85.25
67279;DHT22;54193;53.746;10.058;2023-02-13T19:09:31;5.59;84.84
67279;DHT22;54193;53.746;10.058;2023-02-13T19:12:16;5.51;84.96
67279;DHT22;54193;53.746;10.058;2023-02-13T19:15:02;5.45;84.79
67279;DHT22;54193;53.746;10.058;2023-02-13T19:17:48;5.49;84.53
67279;DHT22;54193;53.746;10.058;2023-02-13T19:20:34;5.48;84.75
67279;DHT22;54193;53.746;10.058;2023-02-13T19:23:19;5.41;84.25
67279;DHT22;54193;53.746;10.058;2023-02-13T19:26:07;5.55;85.30
67279;DHT22;54193;53.746;10.058;2023-02-13T19:28:55;5.49;84.10
67279;DHT22;54193;53.746;10.058;2023-02-13T19:31:41;5.55;84.63
67279;DHT22;54193;53.746;10.058;2023-02-13T19:34:26;5.52;84.56
67279;DHT22;54193;53.746;10.058;2023-02-13T19:37:12;5.58;84.93
67279;DHT22;54193;53.746;10.058;2023-02-13T19:39:58;5.54;84.95
67279;DHT22;54193;53.746;10.058;2023-02-13T19:42:43;5.44;85.21
67279;DHT22;54193;53.746;10.058;2023-02-13T19:45:29;5.42;84.16
67279;DHT22;54193;53.746;10.058;2023-02-13T19:48:14;5.34;84.53
67279;DHT22;54193;53.746;10.058;2023-02-13T19:51:08;5.44;83.82
67279;DHT22;54193;53.746;10.058;2023-02-13T19:54:05;5.49;84.43
67279;DHT22;54193;53.746;10.058;2023-02-13T19:56:51;5.49;84.58
67279;DHT22;54193;53.746;10.058;2023-02-13T19:59:39;5.44;84.43